Time;durP1;ratioP1;P1;durP2;ratioP2;P2;SDS_P1;SDS_P2;PMS_P1;PMS_P2;Temp;Humidity;BMP_temperature;BMP_pressure;BME280_temperature;BME280_humidity;BME280_pressure;Samples;Min_cycle;Max_cycle;Signal;HPM_P1;HPM_P2
2023/01/08 00:00:40;;;;;;;1.13;1.00;;;19.00;44.70;;;;;;4998170;28;20435;-75
2023/01/08 00:03:06;;;;;;;1.20;1.10;;;19.00;44.80;;;;;;4993800;28;20231;-75
2023/01/08 00:05:31;;;;;;;1.30;1.20;;;19.00;44.80;;;;;;4999230;28;20223;-75
2023/01/08 00:07:57;;;;;;;1.23;1.13;;;19.00;44.80;;;;;;4996061;28;20215;-75
2023/01/08 00:10:22;;;;;;;1.10;1.00;;;19.00;44.80;;;;;;4998152;28;20694;-75
2023/01/08 00:12:48;;;;;;;1.23;1.10;;;19.00;44.80;;;;;;4997882;28;20220;-75
2023/01/08 00:15:13;;;;;;;1.13;1.03;;;19.00;44.80;;;;;;4994416;28;22228;-75
2023/01/08 00:17:39;;;;;;;1.37;1.10;;;19.00;44.70;;;;;;4999508;28;20659;-75
2023/01/08 00:20:05;;;;;;;1.50;1.10;;;19.00;44.70;;;;;;4998712;28;20591;-74
2023/01/08 00:22:31;;;;;;;1.20;1.10;;;19.00;44.80;;;;;;4994632;28;20232;-75
2023/01/08 00:24:56;;;;;;;1.33;1.23;;;19.00;44.90;;;;;;4995141;28;20464;-74
2023/01/08 00:27:22;;;;;;;0.80;0.80;;;19.00;44.80;;;;;;4997176;28;20226;-74
2023/01/08 00:29:47;;;;;;;1.10;1.00;;;19.00;44.70;;;;;;4993850;28;20238;-75
2023/01/08 00:32:13;;;;;;;1.20;1.10;;;19.00;44.80;;;;;;4993625;28;20895;-74
2023/01/08 00:34:38;;;;;;;2.40;1.30;;;19.00;44.80;;;;;;4995008;28;20231;-74
2023/01/08 00:37:04;;;;;;;1.10;1.00;;;19.00;44.70;;;;;;4999193;28;20297;-77
2023/01/08 00:39:29;;;;;;;1.23;1.13;;;19.00;44.80;;;;;;4997232;28;20243;-76
2023/01/08 00:41:55;;;;;;;0.97;0.87;;;19.00;44.80;;;;;;4996912;28;20319;-74
2023/01/08 00:44:20;;;;;;;1.07;0.97;;;19.00;44.90;;;;;;4993973;28;20228;-74
2023/01/08 00:46:46;;;;;;;1.20;1.10;;;19.00;44.70;;;;;;4989491;28;20219;-74
2023/01/08 00:49:11;;;;;;;1.00;0.90;;;19.00;44.70;;;;;;4992809;28;20663;-74
2023/01/08 00:51:37;;;;;;;1.10;1.00;;;19.00;44.80;;;;;;4991642;28;20223;-79
2023/01/08 00:54:02;;;;;;;1.10;1.00;;;19.00;44.80;;;;;;4992241;28;20243;-76
2023/01/08 00:56:28;;;;;;;1.10;1.00;;;19.00;44.80;;;;;;4996413;28;20235;-76
2023/01/08 00:58:54;;;;;;;1.23;1.00;;;19.00;44.80;;;;;;4994212;28;20227;-76
2023/01/08 01:01:20;;;;;;;0.93;0.90;;;19.00;44.70;;;;;;4995349;28;20228;-75
2023/01/08 01:03:45;;;;;;;1.20;1.10;;;19.00;44.70;;;;;;4995451;28;20460;-75
2023/01/08 01:06:12;;;;;;;1.07;1.00;;;19.00;44.70;;;;;;4995625;28;20247;-75
2023/01/08 01:08:39;;;;;;;1.13;1.03;;;19.00;44.70;;;;;;4985691;28;20234;-75
2023/01/08 01:11:07;;;;;;;1.30;1.10;;;19.00;44.70;;;;;;4994297;28;20464;-77
2023/01/08 01:13:32;;;;;;;1.13;1.00;;;19.00;44.80;;;;;;4991106;28;20491;-75
2023/01/08 01:16:02;;;;;;;0.83;0.83;;;19.00;44.70;;;;;;4990767;28;20544;-75
2023/01/08 01:18:28;;;;;;;1.10;1.00;;;19.00;44.80;;;;;;4991921;28;20280;-76
2023/01/08 01:20:53;;;;;;;3.10;1.10;;;19.00;44.80;;;;;;4993293;28;20449;-75
2023/01/08 01:23:19;;;;;;;1.20;1.10;;;19.00;44.80;;;;;;4988780;28;20462;-76
2023/01/08 01:25:45;;;;;;;1.20;1.10;;;19.00;44.70;;;;;;4995160;28;20574;-75
2023/01/08 01:28:10;;;;;;;1.40;1.17;;;19.00;44.70;;;;;;4993604;28;20792;-76
2023/01/08 01:30:36;;;;;;;1.20;1.00;;;19.00;44.70;;;;;;4994072;28;20219;-76
2023/01/08 01:33:02;;;;;;;1.00;1.00;;;19.00;44.80;;;;;;4993198;28;20220;-75
2023/01/08 01:35:27;;;;;;;0.97;0.90;;;19.00;44.80;;;;;;4991886;28;20234;-75
2023/01/08 01:37:53;;;;;;;2.20;1.00;;;19.00;44.80;;;;;;4994133;28;20219;-75
2023/01/08 01:40:18;;;;;;;1.20;1.10;;;19.00;44.80;;;;;;4987358;28;20923;-75
2023/01/08 01:42:44;;;;;;;1.23;1.13;;;19.00;44.80;;;;;;4983782;28;20254;-76
2023/01/08 01:45:23;;;;;;;0.87;0.87;;;19.00;44.80;;;;;;4991740;28;20309;-76
2023/01/08 01:47:58;;;;;;;1.03;0.93;;;19.00;44.90;;;;;;4994341;28;20224;-75
2023/01/08 01:50:49;;;;;;;2.20;0.93;;;18.90;44.70;;;;;;4987250;28;20507;-75
2023/01/08 01:53:25;;;;;;;1.10;1.00;;;19.00;44.90;;;;;;4989403;28;20446;-76
2023/01/08 01:55:51;;;;;;;1.10;0.97;;;18.90;44.70;;;;;;4990323;28;20490;-75
2023/01/08 01:58:23;;;;;;;0.90;0.90;;;18.90;44.70;;;;;;4994115;28;20454;-75
2023/01/08 02:00:50;;;;;;;1.00;0.90;;;18.90;44.70;;;;;;4991505;28;20227;-75
2023/01/08 02:03:19;;;;;;;1.10;1.00;;;19.00;44.80;;;;;;4993150;28;20429;-76
2023/01/08 02:05:52;;;;;;;1.00;0.90;;;18.90;45.50;;;;;;4987801;28;20433;-75
2023/01/08 02:08:45;;;;;;;1.10;1.00;;;18.90;44.70;;;;;;4993324;28;20549;-76
2023/01/08 02:11:39;;;;;;;1.13;1.03;;;18.90;44.70;;;;;;4989384;28;20452;-76
2023/01/08 02:14:15;;;;;;;1.13;0.90;;;18.90;44.80;;;;;;4989182;28;20941;-75
2023/01/08 02:16:55;;;;;;;1.13;1.03;;;18.90;44.80;;;;;;4995892;28;20820;-75
2023/01/08 02:19:39;;;;;;;1.10;1.00;;;18.90;44.80;;;;;;4989448;28;20957;-75
2023/01/08 02:22:46;;;;;;;0.97;0.93;;;18.90;44.80;;;;;;4992940;28;20453;-73
2023/01/08 02:25:49;;;;;;;1.20;1.10;;;18.90;44.70;;;;;;4961512;28;20523;-77
2023/01/08 02:28:15;;;;;;;1.20;1.10;;;18.90;44.80;;;;;;4992174;28;20564;-77
2023/01/08 02:30:41;;;;;;;1.07;0.97;;;18.90;44.70;;;;;;4994743;28;20432;-75
2023/01/08 02:33:07;;;;;;;1.17;1.07;;;18.90;44.70;;;;;;4993128;28;20851;-75
2023/01/08 02:36:06;;;;;;;0.93;0.83;;;18.90;44.70;;;;;;4994523;28;20477;-75
2023/01/08 02:38:32;;;;;;;1.10;1.00;;;19.00;44.80;;;;;;4990733;28;20342;-75
2023/01/08 02:41:04;;;;;;;0.90;0.80;;;18.90;44.60;;;;;;4991413;28;20425;-75
2023/01/08 02:43:48;;;;;;;1.30;1.20;;;19.00;44.70;;;;;;4973293;28;20224;-75
2023/01/08 02:46:21;;;;;;;1.10;1.00;;;19.00;44.70;;;;;;4985188;28;21151;-75
2023/01/08 02:49:02;;;;;;;0.93;0.93;;;19.00;44.70;;;;;;4989935;28;20481;-75
2023/01/08 02:51:33;;;;;;;1.00;0.93;;;19.00;44.70;;;;;;4991911;28;20429;-75
2023/01/08 02:54:05;;;;;;;0.90;0.90;;;19.00;44.70;;;;;;4994719;28;20440;-75
2023/01/08 02:56:35;;;;;;;1.00;0.90;;;19.00;44.70;;;;;;4988884;28;20585;-76
2023/01/08 02:59:04;;;;;;;0.80;0.80;;;19.00;44.70;;;;;;4984450;28;20457;-76
2023/01/08 03:01:32;;;;;;;1.20;1.10;;;19.00;44.70;;;;;;4981256;28;20447;-75
2023/01/08 03:04:15;;;;;;;1.00;0.90;;;19.00;44.70;;;;;;4990032;28;20445;-75
2023/01/08 03:06:42;;;;;;;1.07;0.97;;;19.00;44.70;;;;;;4993177;28;20513;-76
2023/01/08 03:09:08;;;;;;;0.90;0.90;;;19.00;44.70;;;;;;4992843;28;20428;-75
2023/01/08 03:11:41;;;;;;;1.00;0.90;;;19.00;44.80;;;;;;4992404;28;20815;-76
2023/01/08 03:14:10;;;;;;;1.00;0.90;;;19.00;44.70;;;;;;4992702;28;21476;-75
2023/01/08 03:16:53;;;;;;;1.20;1.10;;;19.00;44.80;;;;;;4986847;28;20503;-75
2023/01/08 03:19:20;;;;;;;0.87;0.87;;;19.00;44.70;;;;;;4993024;28;20536;-75
2023/01/08 03:21:46;;;;;;;0.90;0.90;;;19.00;44.80;;;;;;4991776;28;20561;-76
2023/01/08 03:24:15;;;;;;;1.10;1.00;;;19.00;44.70;;;;;;4980105;28;20461;-75
2023/01/08 03:26:45;;;;;;;1.13;1.03;;;19.00;44.80;;;;;;4987823;28;20824;-76
2023/01/08 03:29:14;;;;;;;1.10;1.00;;;19.00;44.80;;;;;;4983824;28;20455;-75
2023/01/08 03:31:42;;;;;;;1.10;1.00;;;19.00;44.80;;;;;;4987285;28;20480;-75
2023/01/08 03:34:08;;;;;;;0.83;0.83;;;18.90;44.70;;;;;;4992173;28;20457;-76
2023/01/08 03:36:36;;;;;;;0.90;0.90;;;19.00;44.80;;;;;;4993029;28;20474;-75
2023/01/08 03:39:17;;;;;;;1.10;1.00;;;19.00;44.80;;;;;;4986671;28;20550;-75
2023/01/08 03:41:43;;;;;;;1.90;0.90;;;19.00;44.70;;;;;;4991741;28;20502;-75
2023/01/08 03:44:08;;;;;;;1.07;0.97;;;19.00;44.80;;;;;;4993743;28;20449;-75
2023/01/08 03:46:40;;;;;;;1.20;0.87;;;19.00;44.80;;;;;;4994575;28;20230;-75
2023/01/08 03:49:07;;;;;;;0.93;0.90;;;19.00;44.80;;;;;;4989675;28;20216;-75
2023/01/08 03:51:44;;;;;;;0.97;0.90;;;19.00;44.80;;;;;;4994365;28;20773;-75
2023/01/08 03:54:18;;;;;;;0.80;0.80;;;19.00;44.80;;;;;;4993609;28;20499;-75
2023/01/08 03:56:44;;;;;;;0.90;0.87;;;18.90;44.70;;;;;;4993288;28;20831;-75
2023/01/08 03:59:13;;;;;;;0.80;0.80;;;18.90;44.70;;;;;;4975976;28;20436;-76
2023/01/08 04:01:39;;;;;;;1.20;1.10;;;18.90;44.70;;;;;;4992796;28;20707;-76
2023/01/08 04:04:06;;;;;;;1.10;1.00;;;18.90;44.70;;;;;;4983263;28;20458;-75
2023/01/08 04:06:31;;;;;;;0.90;0.87;;;18.90;44.70;;;;;;4984022;28;21281;-75
2023/01/08 04:08:57;;;;;;;1.07;0.97;;;18.90;45.50;;;;;;4983620;28;20459;-75
2023/01/08 04:11:23;;;;;;;1.10;1.00;;;18.90;44.80;;;;;;4991719;28;20739;-75
2023/01/08 04:13:48;;;;;;;1.00;0.90;;;18.90;44.70;;;;;;4990719;28;20639;-75
2023/01/08 04:16:14;;;;;;;0.83;0.83;;;18.90;44.70;;;;;;5004803;28;20242;-75
2023/01/08 04:18:39;;;;;;;1.03;0.90;;;18.90;44.70;;;;;;4988564;28;20215;-75
2023/01/08 04:21:05;;;;;;;0.87;0.87;;;18.90;44.70;;;;;;4983553;28;20656;-75
2023/01/08 04:23:30;;;;;;;0.90;0.90;;;18.90;44.70;;;;;;4986503;28;20216;-75
2023/01/08 04:25:56;;;;;;;0.87;0.87;;;18.90;44.80;;;;;;4991512;28;20942;-75
2023/01/08 04:28:23;;;;;;;1.00;1.00;;;18.90;44.70;;;;;;4988906;28;21613;-75
2023/01/08 04:30:49;;;;;;;1.20;1.10;;;18.90;44.70;;;;;;4980317;28;20310;-75
2023/01/08 04:33:15;;;;;;;1.07;0.97;;;18.90;44.70;;;;;;4991398;28;20493;-75
2023/01/08 04:35:40;;;;;;;1.00;0.90;;;18.90;44.70;;;;;;4991697;28;20472;-75
2023/01/08 04:38:06;;;;;;;1.10;1.00;;;19.00;44.80;;;;;;4993263;28;20216;-75
2023/01/08 04:40:32;;;;;;;1.10;0.90;;;19.00;44.80;;;;;;4995798;28;20232;-75
2023/01/08 04:42:58;;;;;;;1.30;1.10;;;19.00;44.80;;;;;;4996204;28;20227;-75
2023/01/08 04:45:24;;;;;;;1.00;0.90;;;19.00;44.70;;;;;;4993978;28;20446;-75
2023/01/08 04:47:56;;;;;;;1.30;1.10;;;19.00;44.80;;;;;;4995470;28;20224;-75
2023/01/08 04:50:22;;;;;;;0.80;0.80;;;19.00;44.70;;;;;;4997781;28;20227;-75
2023/01/08 04:52:48;;;;;;;1.10;1.00;;;19.00;44.80;;;;;;4998853;28;20449;-75
2023/01/08 04:55:13;;;;;;;0.83;0.83;;;19.00;44.70;;;;;;4987749;28;20251;-75
2023/01/08 04:57:39;;;;;;;0.90;0.90;;;19.00;44.70;;;;;;4990497;28;20243;-74
2023/01/08 05:00:05;;;;;;;1.10;1.00;;;19.00;44.70;;;;;;4993419;28;20608;-75
2023/01/08 05:02:31;;;;;;;1.00;0.90;;;19.00;44.70;;;;;;4999125;28;20232;-74
2023/01/08 05:04:56;;;;;;;1.00;0.90;;;19.00;44.70;;;;;;4997977;28;20959;-74
2023/01/08 05:07:22;;;;;;;1.03;0.93;;;19.00;44.70;;;;;;4991254;28;20314;-75
2023/01/08 05:09:48;;;;;;;0.90;0.90;;;19.00;44.70;;;;;;4996315;28;20341;-75
2023/01/08 05:12:13;;;;;;;0.80;0.80;;;19.00;44.70;;;;;;4993205;28;20232;-75
2023/01/08 05:14:39;;;;;;;1.03;0.93;;;19.00;44.60;;;;;;4989847;28;20243;-74
2023/01/08 05:17:04;;;;;;;1.90;1.27;;;19.00;44.60;;;;;;4996636;28;20675;-75
2023/01/08 05:19:30;;;;;;;1.73;1.07;;;19.00;44.70;;;;;;4996179;28;20251;-75
2023/01/08 05:21:56;;;;;;;1.20;1.10;;;19.00;44.60;;;;;;4992419;28;20247;-74
2023/01/08 05:24:22;;;;;;;0.80;0.80;;;19.00;44.70;;;;;;4994694;28;20240;-75
2023/01/08 05:26:47;;;;;;;0.90;0.80;;;19.00;44.70;;;;;;4990979;28;20972;-75
2023/01/08 05:29:13;;;;;;;0.90;0.90;;;19.00;44.60;;;;;;4993811;28;20255;-75
2023/01/08 05:31:38;;;;;;;1.17;0.93;;;19.00;44.60;;;;;;4992845;28;20226;-75
2023/01/08 05:34:04;;;;;;;1.10;1.00;;;19.00;44.60;;;;;;4999109;28;20231;-75
2023/01/08 05:36:30;;;;;;;2.30;1.00;;;19.00;44.60;;;;;;4990991;28;20773;-75
2023/01/08 05:38:55;;;;;;;1.00;0.90;;;19.00;44.60;;;;;;4996216;28;20242;-74
2023/01/08 05:41:21;;;;;;;0.90;0.90;;;19.00;44.70;;;;;;4979782;28;20237;-75
2023/01/08 05:43:46;;;;;;;0.80;0.80;;;19.00;44.70;;;;;;4992073;28;20228;-75
2023/01/08 05:46:12;;;;;;;1.00;0.90;;;19.00;44.70;;;;;;4982809;28;20259;-75
2023/01/08 05:48:37;;;;;;;3.23;0.90;;;19.00;44.60;;;;;;4984661;28;20325;-75
2023/01/08 05:51:03;;;;;;;0.93;0.83;;;19.00;44.70;;;;;;4992413;28;20227;-75
2023/01/08 05:53:32;;;;;;;0.80;0.80;;;19.00;44.70;;;;;;4995717;28;20678;-75
2023/01/08 05:56:03;;;;;;;0.93;0.80;;;19.00;44.60;;;;;;4994834;28;20556;-75
2023/01/08 05:58:29;;;;;;;0.90;0.70;;;19.00;44.70;;;;;;4997133;28;20453;-75
2023/01/08 06:01:02;;;;;;;1.10;1.00;;;19.00;44.60;;;;;;4991852;28;20498;-73
2023/01/08 06:03:27;;;;;;;3.00;0.90;;;19.00;44.70;;;;;;4988859;28;20439;-75
2023/01/08 06:05:57;;;;;;;1.20;0.80;;;19.00;44.70;;;;;;4993015;28;20457;-75
2023/01/08 06:08:23;;;;;;;0.80;0.80;;;19.00;44.60;;;;;;4990760;28;20246;-75
2023/01/08 06:10:48;;;;;;;0.80;0.80;;;19.00;44.70;;;;;;4993552;28;20911;-75
2023/01/08 06:13:14;;;;;;;0.90;0.77;;;19.00;44.70;;;;;;4995534;28;20675;-75
2023/01/08 06:15:39;;;;;;;0.83;0.80;;;19.00;44.60;;;;;;4994563;28;20601;-75
2023/01/08 06:18:05;;;;;;;0.80;0.70;;;19.00;44.60;;;;;;4988818;28;20594;-74
2023/01/08 06:20:30;;;;;;;0.70;0.70;;;19.00;44.70;;;;;;4993367;28;20591;-74
2023/01/08 06:22:57;;;;;;;1.17;0.90;;;19.00;44.70;;;;;;4992625;28;20226;-75
2023/01/08 06:25:22;;;;;;;0.70;0.70;;;19.00;44.60;;;;;;4990733;28;20226;-75
2023/01/08 06:27:51;;;;;;;1.40;0.83;;;19.00;44.70;;;;;;4990377;28;20449;-74
2023/01/08 06:30:17;;;;;;;0.80;0.80;;;19.00;44.70;;;;;;4992042;28;20290;-73
2023/01/08 06:32:43;;;;;;;1.10;0.90;;;19.00;44.70;;;;;;4994094;28;20952;-74
2023/01/08 06:35:08;;;;;;;0.70;0.70;;;19.00;44.70;;;;;;4991465;28;20219;-75
2023/01/08 06:37:34;;;;;;;0.80;0.70;;;19.00;44.70;;;;;;4984066;28;20303;-75
2023/01/08 06:39:59;;;;;;;0.80;0.70;;;19.00;44.70;;;;;;4991929;28;20235;-75
2023/01/08 06:42:25;;;;;;;0.87;0.77;;;19.00;44.70;;;;;;4995063;28;20215;-75
2023/01/08 06:44:51;;;;;;;0.90;0.70;;;19.00;44.70;;;;;;4990759;28;20286;-75
2023/01/08 06:47:16;;;;;;;1.00;0.90;;;19.00;44.60;;;;;;4997613;28;20311;-75
2023/01/08 06:49:42;;;;;;;0.77;0.70;;;19.00;44.70;;;;;;4994121;28;20303;-75
2023/01/08 06:52:07;;;;;;;0.70;0.70;;;19.00;44.60;;;;;;4994529;28;20259;-76
2023/01/08 06:54:33;;;;;;;0.70;0.70;;;19.00;44.60;;;;;;4992497;28;20257;-75
2023/01/08 06:56:58;;;;;;;1.47;0.90;;;19.00;44.60;;;;;;4992341;28;20678;-75
2023/01/08 06:59:24;;;;;;;1.10;0.83;;;19.00;44.60;;;;;;4995004;28;20242;-75
2023/01/08 07:01:49;;;;;;;1.13;1.03;;;19.00;44.60;;;;;;4991774;28;20233;-75
2023/01/08 07:04:16;;;;;;;0.93;0.80;;;19.00;44.60;;;;;;4993092;28;20597;-75
2023/01/08 07:06:42;;;;;;;1.00;0.90;;;19.00;44.60;;;;;;4993987;28;20227;-75
2023/01/08 07:09:11;;;;;;;0.80;0.60;;;19.00;44.50;;;;;;4996478;28;20453;-75
2023/01/08 07:11:37;;;;;;;0.80;0.70;;;19.00;45.30;;;;;;4982848;28;20212;-76
2023/01/08 07:14:02;;;;;;;0.80;0.70;;;19.00;44.50;;;;;;4994207;28;20428;-75
2023/01/08 07:16:28;;;;;;;0.70;0.70;;;19.00;44.60;;;;;;4992242;28;20626;-75
2023/01/08 07:18:54;;;;;;;0.73;0.60;;;19.00;44.50;;;;;;4983178;28;20232;-75
2023/01/08 07:21:21;;;;;;;0.70;0.60;;;19.00;45.30;;;;;;4986903;28;20422;-75
2023/01/08 07:23:50;;;;;;;0.80;0.70;;;19.00;44.50;;;;;;4991105;28;20223;-75
2023/01/08 07:26:16;;;;;;;1.00;0.90;;;19.00;44.50;;;;;;4994455;28;20472;-75
2023/01/08 07:28:42;;;;;;;0.87;0.80;;;19.00;44.50;;;;;;4990859;28;20466;-71
2023/01/08 07:31:08;;;;;;;1.03;0.93;;;19.00;44.50;;;;;;4994029;28;20462;-74
2023/01/08 07:33:34;;;;;;;0.80;0.70;;;19.00;44.60;;;;;;4993843;28;21130;-69
2023/01/08 07:36:00;;;;;;;0.90;0.80;;;19.00;44.40;;;;;;4993287;28;20505;-71
2023/01/08 07:38:26;;;;;;;0.70;0.60;;;19.10;44.40;;;;;;4989916;28;20564;-74
2023/01/08 07:40:51;;;;;;;0.80;0.70;;;19.10;44.40;;;;;;5001540;28;20589;-73
2023/01/08 07:43:17;;;;;;;1.60;0.77;;;19.10;44.30;;;;;;4984265;28;20251;-75
2023/01/08 07:45:43;;;;;;;1.27;0.83;;;19.10;44.20;;;;;;4991623;28;20214;-73
2023/01/08 07:48:09;;;;;;;0.70;0.70;;;19.10;44.20;;;;;;4995174;28;20265;-75
2023/01/08 07:50:36;;;;;;;0.80;0.70;;;19.10;44.10;;;;;;4989358;28;21140;-72
2023/01/08 07:53:02;;;;;;;0.90;0.60;;;19.10;44.10;;;;;;4995007;28;20220;-70
2023/01/08 07:55:29;;;;;;;0.80;0.70;;;19.10;44.10;;;;;;4988297;28;20469;-72
2023/01/08 07:57:55;;;;;;;0.73;0.60;;;19.10;44.10;;;;;;4996015;28;20525;-73
2023/01/08 08:00:21;;;;;;;0.80;0.67;;;19.10;44.10;;;;;;4985428;28;20459;-73
2023/01/08 08:02:47;;;;;;;0.90;0.80;;;19.10;44.20;;;;;;4992997;28;20223;-74
2023/01/08 08:05:12;;;;;;;0.70;0.70;;;19.10;44.20;;;;;;4990662;28;20247;-74
2023/01/08 08:07:38;;;;;;;5.33;0.93;;;19.10;44.20;;;;;;4992699;28;20431;-74
2023/01/08 08:10:04;;;;;;;1.37;0.67;;;19.10;44.20;;;;;;4991846;28;20224;-75
2023/01/08 08:12:30;;;;;;;0.80;0.67;;;19.10;44.30;;;;;;4995755;28;20231;-75
2023/01/08 08:14:56;;;;;;;1.20;1.00;;;19.10;44.30;;;;;;4997049;28;20460;-74
2023/01/08 08:17:22;;;;;;;1.47;0.80;;;19.10;44.30;;;;;;4995229;28;20436;-75
2023/01/08 08:19:47;;;;;;;0.97;0.87;;;19.10;44.30;;;;;;4995708;28;20231;-74
2023/01/08 08:22:13;;;;;;;0.63;0.60;;;19.10;44.30;;;;;;4987687;28;20216;-74
2023/01/08 08:24:39;;;;;;;0.70;0.60;;;19.10;44.40;;;;;;4989997;28;20224;-74
2023/01/08 08:27:04;;;;;;;0.70;0.60;;;19.00;45.00;;;;;;4994571;28;20247;-75
2023/01/08 08:29:30;;;;;;;0.93;0.80;;;19.10;44.40;;;;;;4992523;28;20246;-76
2023/01/08 08:31:55;;;;;;;0.70;0.60;;;19.00;44.30;;;;;;4997955;28;20238;-75
2023/01/08 08:34:21;;;;;;;0.80;0.80;;;19.00;44.30;;;;;;4995285;28;20361;-76
2023/01/08 08:36:47;;;;;;;0.80;0.70;;;19.00;44.30;;;;;;4997511;28;20645;-76
2023/01/08 08:39:13;;;;;;;0.70;0.70;;;19.00;44.30;;;;;;4988961;28;20227;-76
2023/01/08 08:41:39;;;;;;;1.67;0.77;;;19.00;44.30;;;;;;4983593;28;20438;-76
2023/01/08 08:44:04;;;;;;;1.20;0.80;;;19.00;44.30;;;;;;4998803;28;20271;-76
2023/01/08 08:46:30;;;;;;;0.70;0.70;;;19.00;44.30;;;;;;4998555;28;20227;-77
2023/01/08 08:48:55;;;;;;;0.80;0.80;;;19.00;44.40;;;;;;4998924;28;20698;-73
2023/01/08 08:51:21;;;;;;;1.00;0.63;;;19.00;44.40;;;;;;4997931;28;20227;-75
2023/01/08 08:53:46;;;;;;;1.13;0.70;;;19.00;44.40;;;;;;4988354;28;20231;-75
2023/01/08 08:56:12;;;;;;;1.20;0.70;;;19.00;45.20;;;;;;4994612;28;20651;-68
2023/01/08 08:58:40;;;;;;;2.73;0.70;;;19.00;44.50;;;;;;4985901;28;21055;-73
2023/01/08 09:01:07;;;;;;;1.00;0.80;;;19.00;44.50;;;;;;4987541;28;20238;-69
2023/01/08 09:03:33;;;;;;;1.20;1.10;;;19.00;44.50;;;;;;4987361;28;20436;-69
2023/01/08 09:05:58;;;;;;;0.90;0.70;;;19.00;44.50;;;;;;4993597;28;20453;-74
2023/01/08 09:08:24;;;;;;;1.80;0.80;;;19.00;44.50;;;;;;5001936;28;20427;-75
2023/01/08 09:10:50;;;;;;;0.90;0.80;;;19.00;44.50;;;;;;4994253;28;20220;-78
2023/01/08 09:13:15;;;;;;;0.87;0.77;;;19.00;44.60;;;;;;4994469;28;20320;-75
2023/01/08 09:15:41;;;;;;;0.73;0.70;;;19.00;44.50;;;;;;4997603;28;20251;-75
2023/01/08 09:18:07;;;;;;;1.53;0.70;;;19.00;44.60;;;;;;4997917;28;20298;-75
2023/01/08 09:20:32;;;;;;;1.03;0.93;;;19.00;44.50;;;;;;4994859;28;20227;-75
2023/01/08 09:22:59;;;;;;;0.90;0.70;;;19.00;44.50;;;;;;4997083;28;20219;-74
2023/01/08 09:25:24;;;;;;;1.47;0.90;;;19.00;44.60;;;;;;5000594;28;20224;-75
2023/01/08 09:28:01;;;;;;;0.93;0.80;;;19.00;44.50;;;;;;4988610;28;20492;-75
2023/01/08 09:30:27;;;;;;;0.97;0.80;;;19.00;44.50;;;;;;4996316;28;20223;-76
2023/01/08 09:32:57;;;;;;;1.67;0.90;;;19.00;44.50;;;;;;4993401;28;20452;-75
2023/01/08 09:35:24;;;;;;;0.90;0.77;;;19.00;44.50;;;;;;4995209;28;20280;-75
2023/01/08 09:37:54;;;;;;;1.03;0.90;;;19.00;44.50;;;;;;4991038;28;20456;-78
2023/01/08 09:40:22;;;;;;;2.60;0.90;;;19.00;44.50;;;;;;4981961;28;20436;-79
2023/01/08 09:42:54;;;;;;;1.80;1.07;;;19.00;44.50;;;;;;4995418;28;20984;-75
2023/01/08 09:45:26;;;;;;;2.60;1.00;;;19.00;44.50;;;;;;4980821;28;20630;-80
2023/01/08 09:47:52;;;;;;;1.60;1.00;;;19.10;44.30;;;;;;4996389;28;20219;-80
2023/01/08 09:50:21;;;;;;;1.60;0.90;;;19.10;44.10;;;;;;4992667;28;20433;-78
2023/01/08 09:52:47;;;;;;;1.00;0.80;;;19.10;44.20;;;;;;4995090;28;20443;-79
2023/01/08 09:55:14;;;;;;;1.60;1.10;;;19.10;44.30;;;;;;4995029;28;20432;-77
2023/01/08 09:57:40;;;;;;;3.53;1.10;;;19.10;44.40;;;;;;5000420;28;20200;-77
2023/01/08 10:00:14;;;;;;;5.27;1.27;;;19.10;44.40;;;;;;4995914;28;20433;-77
2023/01/08 10:02:40;;;;;;;1.07;0.97;;;19.10;44.40;;;;;;4998189;28;20408;-77
2023/01/08 10:05:12;;;;;;;2.50;0.90;;;19.10;44.40;;;;;;4999373;28;20401;-78
2023/01/08 10:07:38;;;;;;;1.80;0.90;;;19.10;44.40;;;;;;5000353;28;20416;-77
2023/01/08 10:10:05;;;;;;;4.23;1.70;;;19.10;44.40;;;;;;5004590;28;20411;-75
2023/01/08 10:12:32;;;;;;;3.93;1.00;;;19.10;44.40;;;;;;4998127;28;20495;-75
2023/01/08 10:40:51;;;;;;;1.03;0.93;;;19.10;44.70;;;;;;4971773;28;21058;-79
2023/01/08 10:43:21;;;;;;;5.10;0.90;;;19.10;44.70;;;;;;4992841;28;20453;-79
2023/01/08 10:45:54;;;;;;;5.17;1.00;;;19.10;44.70;;;;;;4988403;28;20440;-75
2023/01/08 10:48:20;;;;;;;2.70;0.90;;;19.10;44.80;;;;;;4989700;28;20484;-78
2023/01/08 10:50:46;;;;;;;2.33;0.97;;;19.10;44.80;;;;;;4994045;28;20547;-77
2023/01/08 10:53:27;;;;;;;2.43;1.03;;;19.10;44.70;;;;;;4997419;28;20227;-78
2023/01/08 10:55:57;;;;;;;1.30;0.80;;;19.10;44.60;;;;;;4992208;28;21042;-78
2023/01/08 10:58:23;;;;;;;1.20;0.97;;;19.10;44.70;;;;;;4979412;28;20499;-77
2023/01/08 11:00:49;;;;;;;4.90;1.20;;;19.10;44.60;;;;;;4988303;28;20796;-79
2023/01/08 11:03:24;;;;;;;2.20;1.10;;;19.20;44.80;;;;;;4991051;28;20224;-78
2023/01/08 11:05:50;;;;;;;2.47;1.00;;;19.20;44.80;;;;;;4989306;28;20331;-75
2023/01/08 11:08:18;;;;;;;9.30;1.67;;;19.10;44.70;;;;;;4993570;28;20521;-77
2023/01/08 11:10:55;;;;;;;1.40;0.90;;;19.20;44.60;;;;;;4993931;28;20480;-78
2023/01/08 11:13:21;;;;;;;2.00;1.37;;;19.20;44.60;;;;;;4992725;28;20447;-78
2023/01/08 11:16:05;;;;;;;3.47;1.00;;;19.20;44.70;;;;;;4992736;28;20499;-79
2023/01/08 11:18:41;;;;;;;1.20;0.93;;;19.20;44.60;;;;;;4992204;28;20506;-78
2023/01/08 11:21:17;;;;;;;2.27;0.90;;;19.20;44.70;;;;;;4993444;28;20433;-79
2023/01/08 11:23:42;;;;;;;3.83;1.40;;;19.20;44.70;;;;;;4993046;28;20408;-80
2023/01/08 11:26:19;;;;;;;1.50;1.00;;;19.20;44.70;;;;;;4993972;28;20531;-79
2023/01/08 11:28:48;;;;;;;0.80;0.70;;;19.20;44.80;;;;;;4993565;28;20227;-79
2023/01/08 11:31:21;;;;;;;1.00;0.90;;;19.20;44.70;;;;;;4990397;28;20469;-80
2023/01/08 11:33:55;;;;;;;1.20;0.90;;;19.20;44.70;;;;;;4990925;28;20466;-79
2023/01/08 11:36:33;;;;;;;1.20;0.80;;;19.20;44.80;;;;;;4990529;28;20466;-79
2023/01/08 11:39:00;;;;;;;4.30;1.10;;;19.20;44.70;;;;;;4992393;28;20551;-79
2023/01/08 11:41:43;;;;;;;1.37;0.77;;;19.20;44.80;;;;;;4990566;28;20468;-77
2023/01/08 11:44:34;;;;;;;0.70;0.60;;;19.20;44.70;;;;;;4994786;28;21175;-74
2023/01/08 11:47:40;;;;;;;1.17;1.07;;;19.20;44.70;;;;;;4992404;28;20465;-75
2023/01/08 11:50:35;;;;;;;4.00;0.90;;;19.20;44.70;;;;;;4996167;28;20453;-76
2023/01/08 11:53:26;;;;;;;1.20;1.00;;;19.20;44.70;;;;;;4997271;28;20427;-77
2023/01/08 11:56:23;;;;;;;3.50;1.00;;;19.20;44.70;;;;;;4997285;28;20463;-76
2023/01/08 11:59:06;;;;;;;1.30;0.93;;;19.10;44.60;;;;;;4998131;28;20515;-77
2023/01/08 12:01:32;;;;;;;1.40;1.10;;;19.20;44.70;;;;;;4996313;28;20506;-75
2023/01/08 12:04:18;;;;;;;0.93;0.80;;;19.20;44.70;;;;;;4997386;28;20952;-78
2023/01/08 12:06:58;;;;;;;1.60;1.00;;;19.20;44.70;;;;;;4997561;28;20227;-77
2023/01/08 12:09:34;;;;;;;0.73;0.67;;;19.20;44.70;;;;;;4997616;28;20454;-76
2023/01/08 12:12:12;;;;;;;1.30;0.93;;;19.20;44.70;;;;;;4995348;28;20431;-80
2023/01/08 12:15:19;;;;;;;1.40;1.00;;;19.10;44.60;;;;;;4995113;28;20573;-76
2023/01/08 12:18:02;;;;;;;1.07;0.97;;;19.20;44.60;;;;;;5009781;28;20770;-76
2023/01/08 12:20:31;;;;;;;1.73;0.73;;;19.10;44.50;;;;;;4994051;28;20835;-76
2023/01/08 12:23:29;;;;;;;1.77;0.80;;;19.10;44.50;;;;;;4991766;28;20501;-76
2023/01/08 12:26:01;;;;;;;0.90;0.90;;;19.20;44.60;;;;;;4989750;28;20535;-80
2023/01/08 12:28:45;;;;;;;2.50;0.80;;;19.20;44.40;;;;;;4995448;28;20432;-79
2023/01/08 12:31:29;;;;;;;1.00;0.90;;;19.20;44.40;;;;;;4995945;28;20997;-81
2023/01/08 12:34:18;;;;;;;1.13;0.90;;;19.20;44.30;;;;;;4995685;28;20508;-82
2023/01/08 12:36:48;;;;;;;1.20;0.80;;;19.20;44.30;;;;;;4994650;28;20436;-80
2023/01/08 12:39:32;;;;;;;4.33;0.80;;;19.20;44.40;;;;;;4998519;28;20991;-79
2023/01/08 12:42:10;;;;;;;3.70;1.17;;;19.20;44.30;;;;;;4997404;28;20472;-82
2023/01/08 12:44:36;;;;;;;1.30;0.80;;;19.20;44.40;;;;;;4996743;28;20466;-79
2023/01/08 12:47:04;;;;;;;2.53;0.80;;;19.20;44.60;;;;;;4997318;28;20544;-77
2023/01/08 12:49:46;;;;;;;1.20;1.10;;;19.20;44.40;;;;;;4995510;28;20442;-81
2023/01/08 12:52:29;;;;;;;0.70;0.63;;;19.20;44.40;;;;;;4995514;28;20477;-83
2023/01/08 12:55:04;;;;;;;1.37;0.90;;;19.20;44.50;;;;;;4993490;28;20453;-82
2023/01/08 12:57:37;;;;;;;0.90;0.70;;;19.20;44.40;;;;;;4990877;28;20560;-83
2023/01/08 13:00:18;;;;;;;0.93;0.70;;;19.20;44.50;;;;;;4993309;28;21009;-79
2023/01/08 13:02:55;;;;;;;1.97;0.80;;;19.30;44.50;;;;;;4992083;28;20477;-82
2023/01/08 13:05:20;;;;;;;1.23;0.80;;;19.20;44.40;;;;;;4993309;28;20416;-78
2023/01/08 13:07:53;;;;;;;0.70;0.63;;;19.30;44.60;;;;;;4993304;28;20516;-81
2023/01/08 13:10:40;;;;;;;1.00;0.90;;;19.30;44.60;;;;;;4991850;28;20663;-83
2023/01/08 13:13:07;;;;;;;0.80;0.70;;;19.30;44.50;;;;;;4996139;28;20457;-82
2023/01/08 13:15:34;;;;;;;0.80;0.70;;;19.30;44.60;;;;;;4993758;28;20424;-83
2023/01/08 13:18:20;;;;;;;0.97;0.87;;;19.30;44.60;;;;;;4992390;28;20894;-76
2023/01/08 13:21:00;;;;;;;0.70;0.70;;;19.20;44.50;;;;;;4999185;28;20457;-82
2023/01/08 13:23:28;;;;;;;0.80;0.80;;;19.30;44.70;;;;;;4994919;28;20441;-76
2023/01/08 13:25:57;;;;;;;1.00;0.90;;;19.30;44.70;;;;;;4994981;28;21079;-76